Time;durP1;ratioP1;P1;durP2;ratioP2;P2;SDS_P1;SDS_P2;PMS_P1;PMS_P2;Temp;Humidity;BMP_temperature;BMP_pressure;BME280_temperature;BME280_humidity;BME280_pressure;Samples;Min_cycle;Max_cycle;Signal;HPM_P1;HPM_P2
2023/07/02 00:00:04;;;;;;;13.35;9.15;;;;;;;19.04;88.69;95738.28;5094046;28;20070;-69
2023/07/02 00:02:31;;;;;;;10.52;9.52;;;;;;;18.99;88.87;95728.06;5093993;28;20406;-67
2023/07/02 00:04:59;;;;;;;12.07;9.50;;;;;;;18.96;88.35;95725.69;5093678;28;20048;-68
2023/07/02 00:07:26;;;;;;;10.63;9.55;;;;;;;18.89;87.97;95720.06;5092252;28;20040;-70
2023/07/02 00:09:53;;;;;;;10.75;9.60;;;;;;;18.90;88.64;95721.75;5094043;28;20545;-69
2023/07/02 00:12:21;;;;;;;11.05;9.95;;;;;;;18.87;88.06;95723.84;5093909;28;20543;-68
2023/07/02 00:14:49;;;;;;;11.05;10.05;;;;;;;18.69;88.88;95716.44;5092239;28;20066;-69
2023/07/02 00:17:16;;;;;;;10.95;9.85;;;;;;;18.65;89.88;95709.72;5093581;28;20044;-67
2023/07/02 00:19:46;;;;;;;10.80;9.70;;;;;;;18.64;89.45;95713.38;5072445;28;20055;-69
2023/07/02 00:22:15;;;;;;;10.63;9.63;;;;;;;18.50;89.70;95704.75;5073572;28;20048;-68
2023/07/02 00:24:43;;;;;;;10.30;9.05;;;;;;;18.42;89.55;95700.09;5074468;28;20091;-69
2023/07/02 00:27:10;;;;;;;11.45;10.18;;;;;;;18.30;89.84;95701.97;5073417;28;20045;-67
2023/07/02 00:29:39;;;;;;;10.52;9.45;;;;;;;18.24;90.45;95701.66;5073620;28;20132;-68
2023/07/02 00:32:07;;;;;;;10.38;9.52;;;;;;;18.19;91.10;95704.66;5073388;28;20045;-69
2023/07/02 00:34:34;;;;;;;10.20;9.18;;;;;;;18.19;90.86;95707.31;5073347;28;20052;-69
2023/07/02 00:37:01;;;;;;;10.60;9.55;;;;;;;18.14;90.75;95709.47;5081741;28;20509;-66
2023/07/02 00:39:28;;;;;;;10.80;9.70;;;;;;;18.23;90.55;95706.09;5073167;28;20044;-71
2023/07/02 00:41:55;;;;;;;11.10;9.05;;;;;;;18.24;89.31;95713.06;5073137;28;20090;-72
2023/07/02 00:44:22;;;;;;;11.07;8.15;;;;;;;18.24;87.93;95712.22;5073157;28;20048;-66
2023/07/02 00:46:51;;;;;;;9.57;8.27;;;;;;;18.20;88.17;95714.28;5074038;28;20052;-72
2023/07/02 00:49:19;;;;;;;9.60;8.63;;;;;;;18.15;88.10;95716.47;5073292;28;20070;-72
2023/07/02 00:51:46;;;;;;;8.82;8.02;;;;;;;18.14;87.40;95717.41;5073180;28;20052;-69
2023/07/02 00:54:13;;;;;;;8.73;7.93;;;;;;;18.07;87.21;95717.06;5073147;28;20048;-72
2023/07/02 00:56:40;;;;;;;9.18;8.38;;;;;;;18.02;87.42;95725.38;5072918;28;20397;-70
2023/07/02 00:59:07;;;;;;;9.88;8.88;;;;;;;18.04;87.33;95730.53;5073047;28;20044;-70
2023/07/02 01:01:37;;;;;;;14.50;9.27;;;;;;;18.01;86.21;95723.69;5073058;28;20422;-70
2023/07/02 01:04:09;;;;;;;10.13;9.10;;;;;;;17.81;87.55;95714.72;5073015;28;20072;-71
2023/07/02 01:06:40;;;;;;;10.57;9.25;;;;;;;17.83;87.89;95712.81;5076885;28;20296;-71
2023/07/02 01:09:08;;;;;;;12.82;8.32;;;;;;;17.88;87.80;95715.91;5092868;28;20056;-69
2023/07/02 01:11:39;;;;;;;11.07;8.40;;;;;;;17.87;86.70;95706.28;5092746;28;20079;-69
2023/07/02 01:14:15;;;;;;;11.93;8.52;;;;;;;17.82;86.24;95705.81;5093097;28;20056;-70
2023/07/02 01:16:44;;;;;;;11.10;9.77;;;;;;;17.70;86.40;95697.06;5091175;28;20055;-70
2023/07/02 01:19:19;;;;;;;11.02;9.15;;;;;;;17.66;87.87;95693.84;5072886;28;20084;-67
2023/07/02 01:21:50;;;;;;;9.77;8.30;;;;;;;17.64;86.60;95698.41;5072825;28;20136;-70
2023/07/02 01:24:17;;;;;;;10.15;9.15;;;;;;;17.59;86.59;95703.22;5072861;28;20103;-67
2023/07/02 01:26:45;;;;;;;9.95;8.40;;;;;;;17.42;86.73;95692.19;5072787;28;20048;-67
2023/07/02 01:29:20;;;;;;;11.00;9.50;;;;;;;17.44;87.74;95702.66;5090492;28;20113;-70
2023/07/02 01:31:48;;;;;;;10.93;9.23;;;;;;;17.39;88.33;95718.88;5092908;28;20044;-66
2023/07/02 01:34:15;;;;;;;10.15;8.95;;;;;;;17.27;89.27;95719.81;5092854;28;20055;-65
2023/07/02 01:36:43;;;;;;;15.63;10.05;;;;;;;17.20;89.65;95719.47;5092887;28;20044;-69
2023/07/02 01:39:11;;;;;;;10.68;9.68;;;;;;;17.10;89.73;95719.31;5077231;28;20052;-67
2023/07/02 01:41:43;;;;;;;10.05;9.00;;;;;;;17.10;90.35;95714.03;5072286;28;20041;-65
2023/07/02 01:44:11;;;;;;;10.25;9.23;;;;;;;17.03;89.91;95712.81;5072607;28;20548;-68
2023/07/02 01:46:38;;;;;;;9.15;8.35;;;;;;;16.97;89.72;95711.50;5072461;28;20453;-70
2023/07/02 01:49:05;;;;;;;11.45;9.30;;;;;;;16.99;89.37;95712.22;5072580;28;20056;-69
2023/07/02 01:51:32;;;;;;;11.95;9.48;;;;;;;17.02;90.08;95713.78;5072449;28;20144;-67
2023/07/02 01:53:59;;;;;;;9.00;8.20;;;;;;;17.08;88.37;95715.97;5072496;28;20084;-69
2023/07/02 01:56:28;;;;;;;14.85;8.45;;;;;;;17.04;88.12;95703.94;5072673;28;20044;-69
2023/07/02 01:58:55;;;;;;;11.60;8.35;;;;;;;17.02;87.80;95712.00;5078599;28;20040;-69
2023/07/02 02:01:22;;;;;;;10.10;7.93;;;;;;;16.97;87.22;95715.91;5092030;28;20051;-70
2023/07/02 02:03:49;;;;;;;11.27;8.57;;;;;;;17.02;87.13;95716.41;5092641;28;20048;-68
2023/07/02 02:06:17;;;;;;;9.15;8.27;;;;;;;16.98;86.69;95725.53;5092228;28;20040;-66
2023/07/02 02:08:44;;;;;;;10.70;8.90;;;;;;;16.97;87.32;95729.13;5091490;28;20040;-68
2023/07/02 02:11:11;;;;;;;9.43;8.48;;;;;;;16.98;87.05;95725.53;5092772;28;20124;-66
2023/07/02 02:13:39;;;;;;;11.57;8.23;;;;;;;17.00;86.18;95715.69;5092585;28;20101;-65
2023/07/02 02:16:06;;;;;;;9.40;7.88;;;;;;;16.93;85.96;95723.25;5090847;28;20048;-68
2023/07/02 02:18:34;;;;;;;10.30;7.88;;;;;;;16.85;86.18;95715.06;5093031;28;20079;-67
2023/07/02 02:21:01;;;;;;;11.48;7.88;;;;;;;16.77;86.39;95711.22;5095618;28;20482;-69
2023/07/02 02:23:28;;;;;;;9.05;8.15;;;;;;;16.73;86.65;95708.91;5094778;28;20138;-67
2023/07/02 02:25:55;;;;;;;10.30;8.27;;;;;;;16.73;86.24;95703.63;5096023;28;20105;-69
2023/07/02 02:28:22;;;;;;;8.63;7.80;;;;;;;16.75;86.38;95701.72;5094143;28;20429;-68
2023/07/02 02:30:51;;;;;;;12.65;8.90;;;;;;;16.71;86.58;95714.34;5095832;28;20066;-64
2023/07/02 02:33:18;;;;;;;9.32;8.50;;;;;;;16.66;86.71;95705.91;5095928;28;20052;-64
2023/07/02 02:35:46;;;;;;;9.05;8.05;;;;;;;16.62;86.48;95699.19;5096303;28;20043;-64
2023/07/02 02:38:14;;;;;;;10.70;9.05;;;;;;;16.58;88.12;95703.03;5093490;28;20158;-68
2023/07/02 02:40:41;;;;;;;17.88;9.50;;;;;;;16.57;87.15;95707.47;5095772;28;20497;-66
2023/07/02 02:43:08;;;;;;;13.57;9.50;;;;;;;16.54;88.30;95705.06;5095654;28;20044;-67
2023/07/02 02:45:35;;;;;;;16.48;8.73;;;;;;;16.53;88.22;95696.28;5095468;28;20050;-66
2023/07/02 02:48:04;;;;;;;9.52;8.63;;;;;;;16.49;87.80;95704.53;5076272;28;20083;-67
2023/07/02 02:50:31;;;;;;;10.90;8.77;;;;;;;16.30;90.25;95695.38;5075393;28;20072;-65
2023/07/02 02:52:58;;;;;;;10.13;9.07;;;;;;;16.31;90.71;95704.97;5075314;28;20048;-65
2023/07/02 02:55:26;;;;;;;10.18;9.10;;;;;;;16.38;90.87;95702.72;5075241;28;20048;-68
2023/07/02 02:57:53;;;;;;;9.82;8.27;;;;;;;16.40;90.40;95701.66;5076263;28;20048;-65
2023/07/02 03:00:19;;;;;;;9.60;8.00;;;;;;;16.44;89.85;95704.06;5075175;28;20053;-67
2023/07/02 03:02:46;;;;;;;10.15;8.60;;;;;;;16.50;89.98;95700.97;5075066;28;20055;-65
2023/07/02 03:05:16;;;;;;;9.57;8.77;;;;;;;16.52;90.07;95713.09;5075144;28;20453;-67
2023/07/02 03:07:43;;;;;;;9.48;8.40;;;;;;;16.54;89.73;95713.81;5075981;28;20045;-66
2023/07/02 03:10:10;;;;;;;11.88;9.07;;;;;;;16.55;90.03;95714.66;5074863;28;20106;-65
2023/07/02 03:12:37;;;;;;;12.63;8.88;;;;;;;16.66;90.11;95727.88;5074833;28;20044;-66
2023/07/02 03:15:05;;;;;;;10.18;9.18;;;;;;;16.76;89.93;95716.59;5074860;28;20044;-66
2023/07/02 03:17:32;;;;;;;11.40;8.30;;;;;;;16.85;90.00;95718.56;5075980;28;20486;-69
2023/07/02 03:20:00;;;;;;;10.48;8.57;;;;;;;16.87;89.81;95719.28;5074644;28;20044;-67
2023/07/02 03:22:28;;;;;;;10.52;8.27;;;;;;;16.93;89.93;95717.97;5074654;28;20059;-68
2023/07/02 03:24:55;;;;;;;9.75;8.57;;;;;;;16.95;90.82;95715.22;5074702;28;20402;-65
2023/07/02 03:27:22;;;;;;;10.20;8.00;;;;;;;17.01;91.35;95726.13;5078456;28;20039;-65
2023/07/02 03:29:50;;;;;;;9.30;8.27;;;;;;;17.09;91.14;95728.22;5094233;28;20044;-67
2023/07/02 03:32:17;;;;;;;13.50;8.60;;;;;;;17.17;90.99;95732.91;5094302;28;20059;-66
2023/07/02 03:34:43;;;;;;;10.05;7.80;;;;;;;17.31;91.10;95742.44;5094332;28;20044;-66
2023/07/02 03:37:10;;;;;;;10.23;9.30;;;;;;;17.53;90.73;95728.34;5094652;28;20074;-68
2023/07/02 03:39:39;;;;;;;9.43;8.00;;;;;;;17.84;90.20;95732.13;5092012;28;20490;-65
2023/07/02 03:42:07;;;;;;;8.27;6.93;;;;;;;18.13;88.01;95740.41;5094516;28;20040;-67
2023/07/02 03:44:34;;;;;;;7.93;6.75;;;;;;;18.29;86.03;95745.28;5094519;28;20055;-68
2023/07/02 03:47:01;;;;;;;9.10;6.65;;;;;;;18.37;85.50;95752.59;5094192;28;20056;-67
2023/07/02 03:49:29;;;;;;;9.07;6.75;;;;;;;18.39;84.70;95753.31;5092244;28;20400;-65
2023/07/02 03:51:56;;;;;;;9.85;6.72;;;;;;;18.35;83.92;95743.09;5094348;28;20044;-67
2023/07/02 03:54:23;;;;;;;9.07;7.38;;;;;;;18.37;85.03;95743.81;5094238;28;20058;-66
2023/07/02 03:56:51;;;;;;;15.55;7.68;;;;;;;18.43;85.70;95746.78;5094227;28;20076;-67
2023/07/02 03:59:20;;;;;;;8.40;7.15;;;;;;;18.62;86.38;95732.03;5092468;28;20378;-66
2023/07/02 04:01:47;;;;;;;7.45;6.63;;;;;;;18.96;85.73;95733.63;5094137;28;20090;-65
2023/07/02 04:04:14;;;;;;;7.10;6.00;;;;;;;19.28;84.63;95734.53;5094047;28;20402;-64
2023/07/02 04:06:41;;;;;;;8.35;6.72;;;;;;;19.55;83.33;95739.25;5094136;28;20599;-65
2023/07/02 04:09:09;;;;;;;10.18;6.45;;;;;;;19.67;82.06;95742.66;5094114;28;20044;-67
2023/07/02 04:11:35;;;;;;;7.95;6.70;;;;;;;19.68;81.47;95744.31;5091841;28;20075;-68
2023/07/02 04:14:04;;;;;;;9.38;6.93;;;;;;;19.63;80.45;95746.53;5093930;28;20225;-69
2023/07/02 04:16:31;;;;;;;13.57;7.03;;;;;;;19.59;80.60;95742.47;5093953;28;20130;-68
2023/07/02 04:18:59;;;;;;;10.02;7.10;;;;;;;19.54;81.08;95747.34;5093888;28;20452;-67
2023/07/02 04:21:26;;;;;;;6.72;6.20;;;;;;;19.52;82.11;95744.81;5092046;28;20046;-67
2023/07/02 04:23:53;;;;;;;7.25;6.55;;;;;;;19.51;81.83;95750.25;5093755;28;20418;-68
2023/07/02 04:26:20;;;;;;;8.30;7.50;;;;;;;19.51;82.48;95755.56;5092395;28;20139;-67
2023/07/02 04:28:47;;;;;;;7.90;7.20;;;;;;;19.52;83.52;95757.22;5093420;28;20048;-70
2023/07/02 04:31:16;;;;;;;8.63;7.00;;;;;;;19.54;83.82;95753.47;5091893;28;20044;-67
2023/07/02 04:33:43;;;;;;;9.10;8.25;;;;;;;19.58;83.48;95751.41;5093646;28;20052;-69
2023/07/02 04:36:12;;;;;;;12.63;8.48;;;;;;;19.63;83.30;95753.66;5093579;28;20040;-67
2023/07/02 04:38:40;;;;;;;10.88;8.10;;;;;;;19.61;83.50;95769.69;5093403;28;20048;-68
2023/07/02 04:41:10;;;;;;;14.90;8.43;;;;;;;19.69;83.15;95772.50;5093602;28;20093;-65
2023/07/02 04:43:37;;;;;;;21.35;8.32;;;;;;;19.86;83.12;95762.22;5090444;28;20054;-66
2023/07/02 04:46:07;;;;;;;9.40;8.40;;;;;;;20.01;81.87;95753.91;5093253;28;20044;-70
2023/07/02 04:48:36;;;;;;;13.77;8.47;;;;;;;20.10;81.57;95747.78;5093579;28;20048;-66
2023/07/02 04:51:03;;;;;;;8.32;7.50;;;;;;;20.19;81.52;95756.75;5084530;28;20047;-67
2023/07/02 04:53:31;;;;;;;8.60;7.80;;;;;;;20.27;81.49;95766.69;5073172;28;20380;-69
2023/07/02 04:55:58;;;;;;;9.40;6.97;;;;;;;20.34;81.75;95773.09;5073012;28;20094;-69
2023/07/02 04:58:25;;;;;;;8.52;7.65;;;;;;;20.46;81.55;95779.13;5073126;28;20049;-66
2023/07/02 05:00:53;;;;;;;13.45;7.80;;;;;;;20.63;80.99;95776.75;5073792;28;20050;-67
2023/07/02 05:03:20;;;;;;;8.38;7.32;;;;;;;20.86;79.95;95773.81;5072923;28;20110;-66
2023/07/02 05:05:49;;;;;;;8.10;6.72;;;;;;;21.02;78.80;95783.91;5073098;28;20055;-68
2023/07/02 05:08:16;;;;;;;7.57;6.70;;;;;;;21.15;78.55;95791.56;5071815;28;20127;-68
2023/07/02 05:10:44;;;;;;;10.75;6.70;;;;;;;21.16;77.18;95795.91;5073104;28;20044;-67
2023/07/02 05:13:11;;;;;;;8.25;7.40;;;;;;;21.23;76.30;95791.69;5073860;28;20055;-68
2023/07/02 05:15:39;;;;;;;7.85;7.15;;;;;;;21.24;76.09;95793.38;5072825;28;20049;-68
2023/07/02 05:18:07;;;;;;;6.88;6.28;;;;;;;21.23;73.63;95788.19;5072706;28;20059;-67
2023/07/02 05:20:35;;;;;;;7.63;6.78;;;;;;;21.16;75.55;95780.78;5072686;28;20079;-69
2023/07/02 05:23:04;;;;;;;8.27;7.47;;;;;;;21.15;76.97;95778.28;5072641;28;20094;-66
2023/07/02 05:25:33;;;;;;;8.23;7.53;;;;;;;21.11;78.42;95772.41;5072838;28;20052;-69
2023/07/02 05:28:01;;;;;;;7.60;6.45;;;;;;;21.08;78.31;95778.00;5072818;28;20048;-65
2023/07/02 05:30:28;;;;;;;8.48;7.68;;;;;;;21.11;78.83;95779.53;5072704;28;20098;-68
2023/07/02 05:32:56;;;;;;;13.23;7.00;;;;;;;21.07;77.01;95785.16;5073630;28;20044;-66
2023/07/02 05:35:23;;;;;;;7.65;6.18;;;;;;;20.83;75.96;95788.25;5072844;28;20048;-68
2023/07/02 05:37:50;;;;;;;8.38;6.65;;;;;;;20.84;77.46;95780.09;5072871;28;20453;-66
2023/07/02 05:40:19;;;;;;;9.93;6.95;;;;;;;20.92;78.98;95790.06;5072694;28;20040;-67
2023/07/02 05:42:46;;;;;;;7.85;7.15;;;;;;;20.95;80.68;95783.66;5073638;28;20386;-67
2023/07/02 05:45:14;;;;;;;8.27;6.75;;;;;;;20.95;80.91;95783.66;5072444;28;20044;-65
2023/07/02 05:47:41;;;;;;;9.25;6.72;;;;;;;20.90;80.35;95776.09;5072637;28;20231;-67
2023/07/02 05:50:09;;;;;;;7.85;6.95;;;;;;;20.95;81.80;95787.13;5072504;28;20044;-67
2023/07/02 05:52:36;;;;;;;7.20;6.50;;;;;;;20.98;80.52;95775.34;5072583;28;20044;-68
2023/07/02 05:55:04;;;;;;;10.40;6.38;;;;;;;21.01;80.70;95784.88;5075467;28;20083;-68
2023/07/02 05:57:33;;;;;;;7.30;6.55;;;;;;;21.13;79.67;95799.69;5077200;28;20047;-66
2023/07/02 06:00:01;;;;;;;7.50;6.80;;;;;;;21.21;79.59;95799.81;5075990;28;20402;-65
2023/07/02 06:02:28;;;;;;;8.35;7.60;;;;;;;21.21;80.78;95809.59;5075998;28;20127;-65
2023/07/02 06:04:57;;;;;;;9.52;7.63;;;;;;;21.20;81.66;95806.09;5075213;28;20045;-70
2023/07/02 06:07:25;;;;;;;9.27;8.40;;;;;;;21.29;82.24;95806.25;5075926;28;20051;-68
2023/07/02 06:09:52;;;;;;;8.68;7.55;;;;;;;21.34;81.70;95807.47;5074693;28;20040;-68
2023/07/02 06:12:20;;;;;;;12.85;8.30;;;;;;;21.38;81.09;95802.72;5074886;28;20053;-68
2023/07/02 06:14:49;;;;;;;9.23;8.40;;;;;;;21.43;80.40;95805.78;5073623;28;20055;-70
2023/07/02 06:17:17;;;;;;;9.18;6.88;;;;;;;21.48;80.71;95812.47;5075726;28;20371;-68
2023/07/02 06:19:46;;;;;;;9.27;8.00;;;;;;;21.51;79.18;95818.38;5075873;28;20048;-69
2023/07/02 06:22:14;;;;;;;8.82;7.03;;;;;;;21.59;78.22;95825.63;5075909;28;20132;-66
2023/07/02 06:24:42;;;;;;;10.10;7.35;;;;;;;21.63;76.83;95818.16;5091095;28;20059;-67
2023/07/02 06:27:09;;;;;;;10.25;8.13;;;;;;;21.71;76.58;95832.44;5096021;28;20054;-70
2023/07/02 06:29:37;;;;;;;9.30;7.18;;;;;;;21.74;76.25;95828.66;5096014;28;20093;-73
2023/07/02 06:32:07;;;;;;;8.63;7.68;;;;;;;21.75;76.26;95827.69;5095906;28;20121;-71
2023/07/02 06:34:36;;;;;;;8.95;7.00;;;;;;;21.76;74.63;95821.38;5084824;28;20117;-71
2023/07/02 06:37:03;;;;;;;7.50;6.90;;;;;;;21.73;74.23;95813.66;5075606;28;20098;-69
2023/07/02 06:39:31;;;;;;;9.63;7.15;;;;;;;21.75;74.20;95813.50;5075261;28;20047;-66
2023/07/02 06:41:59;;;;;;;8.13;7.32;;;;;;;21.75;74.87;95821.50;5075020;28;20052;-66
2023/07/02 06:44:27;;;;;;;15.75;8.77;;;;;;;21.77;75.63;95815.09;5081115;28;20135;-66
2023/07/02 06:46:55;;;;;;;13.48;7.70;;;;;;;21.73;75.51;95808.34;5095395;28;20051;-67
2023/07/02 06:49:24;;;;;;;8.57;7.38;;;;;;;21.58;75.52;95807.97;5095562;28;20044;-66
2023/07/02 06:51:52;;;;;;;6.95;5.97;;;;;;;21.50;76.05;95814.03;5094456;28;20397;-66
2023/07/02 06:54:20;;;;;;;9.45;7.50;;;;;;;21.37;75.55;95821.47;5093693;28;20086;-66
2023/07/02 06:56:47;;;;;;;7.72;6.93;;;;;;;21.36;76.40;95828.63;5078143;28;20044;-66
2023/07/02 06:59:20;;;;;;;8.45;7.45;;;;;;;21.35;79.51;95832.25;5088189;28;20044;-66
2023/07/02 07:01:48;;;;;;;8.07;7.20;;;;;;;21.41;78.69;95838.81;5094612;28;20048;-66
2023/07/02 07:04:16;;;;;;;8.23;7.43;;;;;;;21.50;78.71;95842.44;5095283;28;20052;-66
2023/07/02 07:06:45;;;;;;;8.05;7.25;;;;;;;21.56;78.97;95849.84;5083786;28;20053;-66
2023/07/02 07:09:14;;;;;;;9.75;7.32;;;;;;;21.59;80.17;95855.72;5074963;28;20110;-66
2023/07/02 07:11:41;;;;;;;11.30;7.90;;;;;;;21.58;81.01;95869.16;5074883;28;20114;-66
2023/07/02 07:14:09;;;;;;;11.13;7.60;;;;;;;21.50;81.97;95869.03;5074944;28;20513;-66
2023/07/02 07:16:36;;;;;;;8.73;7.80;;;;;;;21.47;81.73;95840.91;5080499;28;20044;-66
2023/07/02 07:19:04;;;;;;;10.95;7.35;;;;;;;21.36;79.74;95820.63;5095151;28;20086;-67
2023/07/02 07:21:32;;;;;;;8.40;7.68;;;;;;;21.29;80.52;95840.81;5094985;28;20147;-67
2023/07/02 07:24:02;;;;;;;9.40;8.38;;;;;;;21.34;81.34;95836.72;5094837;28;20105;-67
2023/07/02 07:26:30;;;;;;;9.17;8.37;;;;;;;21.43;81.91;95832.38;5093083;28;20531;-67
2023/07/02 07:28:57;;;;;;;8.63;7.72;;;;;;;21.51;81.82;95817.50;5094734;28;20276;-67
2023/07/02 07:31:25;;;;;;;11.40;7.53;;;;;;;21.46;81.62;95812.63;5094800;28;20094;-66
2023/07/02 07:33:53;;;;;;;12.10;7.45;;;;;;;21.48;81.49;95805.34;5094926;28;20455;-67
2023/07/02 07:36:20;;;;;;;10.10;7.38;;;;;;;21.59;80.04;95797.19;5094776;28;20052;-66
2023/07/02 07:38:48;;;;;;;8.35;7.55;;;;;;;21.68;81.20;95791.97;5092757;28;20043;-66
2023/07/02 07:41:18;;;;;;;8.27;7.53;;;;;;;21.70;80.36;95782.00;5094541;28;20158;-66
2023/07/02 07:43:45;;;;;;;8.82;7.47;;;;;;;21.77;80.14;95780.50;5093174;28;20131;-67
2023/07/02 07:46:13;;;;;;;11.20;7.22;;;;;;;21.83;77.15;95773.75;5089945;28;20040;-67
2023/07/02 07:48:41;;;;;;;9.45;7.07;;;;;;;21.84;77.45;95768.28;5094466;28;20048;-67
2023/07/02 07:51:09;;;;;;;9.65;6.18;;;;;;;21.98;75.50;95768.75;5094380;28;20052;-68
2023/07/02 07:53:39;;;;;;;7.05;6.35;;;;;;;22.09;74.01;95765.88;5094496;28;20052;-67
2023/07/02 07:56:07;;;;;;;;;;;;;;;22.21;71.90;95776.31;5080617;28;20115;-67
2023/07/02 07:58:36;;;;;;;9.25;6.55;;;;;;;22.24;70.51;95786.66;5074220;28;20274;-68
2023/07/02 08:01:03;;;;;;;10.18;6.63;;;;;;;22.41;71.52;95787.69;5074006;28;20099;-67
2023/07/02 08:03:31;;;;;;;6.45;5.85;;;;;;;22.71;71.29;95788.34;5073861;28;20048;-67
2023/07/02 08:05:58;;;;;;;7.78;6.15;;;;;;;22.83;70.14;95788.09;5075003;28;20502;-67
2023/07/02 08:08:25;;;;;;;6.78;6.05;;;;;;;23.05;70.49;95785.91;5073896;28;20049;-67
2023/07/02 08:10:52;;;;;;;9.18;6.60;;;;;;;23.25;70.51;95780.41;5073804;28;20048;-67
2023/07/02 08:13:20;;;;;;;6.30;5.80;;;;;;;23.57;71.07;95781.63;5073423;28;20049;-68
2023/07/02 08:15:49;;;;;;;6.82;6.10;;;;;;;24.03;67.92;95777.81;5072970;28;20063;-67
2023/07/02 08:18:16;;;;;;;8.07;5.65;;;;;;;24.56;64.60;95783.00;5073150;28;20052;-69
2023/07/02 08:20:43;;;;;;;6.60;6.00;;;;;;;25.11;60.33;95786.06;5076126;28;20486;-66
2023/07/02 08:23:11;;;;;;;6.90;5.30;;;;;;;25.47;59.06;95782.97;5093932;28;20494;-66
2023/07/02 08:25:38;;;;;;;5.82;5.32;;;;;;;25.68;59.00;95778.13;5092553;28;20055;-66
2023/07/02 08:28:05;;;;;;;97.65;19.38;;;;;;;25.88;61.36;95775.03;5076093;28;20524;-66
2023/07/02 08:30:33;;;;;;;8.02;5.70;;;;;;;26.24;59.96;95775.34;5073487;28;20056;-66
2023/07/02 08:33:02;;;;;;;6.20;5.60;;;;;;;26.77;63.63;95773.03;5073381;28;20044;-66
2023/07/02 08:35:30;;;;;;;6.60;5.53;;;;;;;27.37;63.57;95775.91;5073146;28;20493;-66
2023/07/02 08:37:58;;;;;;;7.40;5.45;;;;;;;27.61;54.04;95782.03;5085074;28;20558;-67
2023/07/02 08:40:26;;;;;;;5.82;5.13;;;;;;;27.76;54.49;95787.44;5092902;28;20559;-67
2023/07/02 08:42:53;;;;;;;8.23;5.50;;;;;;;28.06;56.85;95784.75;5091500;28;20044;-66
2023/07/02 08:45:24;;;;;;;5.68;5.18;;;;;;;28.34;53.81;95780.53;5092580;28;20052;-66
2023/07/02 08:47:53;;;;;;;5.88;5.13;;;;;;;28.31;53.31;95783.59;5093515;28;20054;-66
2023/07/02 08:50:22;;;;;;;6.40;5.40;;;;;;;28.02;50.38;95788.78;5093490;28;20048;-67
2023/07/02 08:52:50;;;;;;;6.78;5.47;;;;;;;28.07;51.85;95782.88;5093616;28;20139;-67
2023/07/02 08:55:17;;;;;;;7.25;5.80;;;;;;;28.08;51.04;95784.56;5093283;28;20437;-66
2023/07/02 08:57:54;;;;;;;6.32;4.95;;;;;;;28.11;50.17;95787.69;5093248;28;20044;-66
2023/07/02 09:00:22;;;;;;;6.70;5.20;;;;;;;28.24;48.36;95789.69;5093300;28;20044;-66
2023/07/02 09:02:50;;;;;;;7.15;4.78;;;;;;;28.28;47.70;95792.84;5093269;28;20444;-66
2023/07/02 09:05:17;;;;;;;7.07;5.30;;;;;;;28.04;47.00;95796.66;5093205;28;20080;-66
2023/07/02 09:07:50;;;;;;;6.70;5.45;;;;;;;28.06;50.41;95795.50;5093261;28;20097;-66
2023/07/02 09:10:29;;;;;;;7.63;5.75;;;;;;;28.15;48.93;95790.00;5093152;28;20051;-66
2023/07/02 09:13:06;;;;;;;6.07;5.38;;;;;;;28.00;48.99;95788.97;5093217;28;20100;-67
2023/07/02 09:15:40;;;;;;;8.00;5.38;;;;;;;27.82;47.79;95794.75;5093150;28;20056;-66
2023/07/02 09:18:20;;;;;;;8.15;5.32;;;;;;;27.71;51.68;95795.22;5093040;28;20048;-66
2023/07/02 09:20:51;;;;;;;9.65;6.13;;;;;;;27.81;50.15;95786.88;5093091;28;20039;-66
2023/07/02 09:23:20;;;;;;;7.97;5.63;;;;;;;28.10;48.95;95791.41;5093129;28;20047;-66
2023/07/02 09:25:56;;;;;;;6.88;5.32;;;;;;;28.48;46.50;95801.16;5092962;28;20084;-67
2023/07/02 09:28:23;;;;;;;12.18;5.82;;;;;;;28.61;44.34;95794.25;5093240;28;20052;-66
2023/07/02 09:30:53;;;;;;;6.75;5.15;;;;;;;28.59;45.42;95788.25;5097155;28;20131;-67
2023/07/02 09:33:20;;;;;;;7.13;5.60;;;;;;;28.61;46.79;95788.88;5097196;28;20078;-66
2023/07/02 09:35:48;;;;;;;7.15;5.80;;;;;;;28.84;50.64;95787.88;5097020;28;20076;-66
2023/07/02 09:38:16;;;;;;;6.10;5.50;;;;;;;29.12;52.34;95784.41;5097210;28;20141;-67
2023/07/02 09:40:48;;;;;;;5.78;5.18;;;;;;;29.13;47.92;95788.78;5097072;28;20067;-66
2023/07/02 09:43:15;;;;;;;6.72;5.18;;;;;;;29.23;47.44;95789.25;5097132;28;20059;-67
2023/07/02 09:45:46;;;;;;;7.53;5.13;;;;;;;29.35;49.54;95789.56;5096686;28;20056;-66
2023/07/02 09:48:15;;;;;;;5.72;5.15;;;;;;;29.45;48.59;95783.84;5096990;28;20052;-67
2023/07/02 09:50:44;;;;;;;13.65;6.28;;;;;;;29.35;49.42;95781.47;5096806;28;20044;-67
2023/07/02 09:53:12;;;;;;;11.07;5.78;;;;;;;29.30;47.33;95781.25;5096711;28;20485;-67
2023/07/02 09:55:40;;;;;;;6.32;5.72;;;;;;;29.48;48.14;95779.94;5096752;28;20131;-66
2023/07/02 09:58:10;;;;;;;6.85;5.57;;;;;;;29.62;49.28;95772.81;5096597;28;20455;-66
2023/07/02 10:00:38;;;;;;;9.18;5.80;;;;;;;29.74;48.84;95767.69;5096566;28;20505;-66
2023/07/02 10:03:06;;;;;;;7.07;5.28;;;;;;;29.98;48.59;95769.03;5096607;28;20052;-67
2023/07/02 10:05:34;;;;;;;6.80;5.30;;;;;;;30.02;44.67;95770.31;5096401;28;20090;-67
2023/07/02 10:08:13;;;;;;;6.15;5.43;;;;;;;30.06;47.02;95759.94;5096319;28;20048;-67
2023/07/02 10:10:41;;;;;;;21.92;6.55;;;;;;;29.84;44.64;95765.47;5096420;28;20121;-67
2023/07/02 10:13:11;;;;;;;6.65;5.53;;;;;;;29.70;49.41;95763.72;5096382;28;20048;-66
2023/07/02 10:15:42;;;;;;;7.68;5.07;;;;;;;29.71;50.34;95763.50;5096261;28;20044;-67
2023/07/02 10:18:08;;;;;;;;;;;;;;;29.87;49.23;95761.53;5096606;28;20040;-66
2023/07/02 10:20:41;;;;;;;8.70;5.85;;;;;;;29.99;49.04;95759.94;5096297;28;19920;-67
2023/07/02 10:23:11;;;;;;;6.88;5.80;;;;;;;29.91;44.08;95773.56;5094976;28;20054;-67
2023/07/02 10:25:40;;;;;;;6.75;5.57;;;;;;;29.59;47.51;95767.81;5096060;28;20052;-67
2023/07/02 10:28:22;;;;;;;6.72;5.55;;;;;;;29.27;47.44;95765.50;5094927;28;20052;-67
2023/07/02 10:30:52;;;;;;;6.95;5.78;;;;;;;29.04;48.30;95755.78;5096115;28;20083;-67
2023/07/02 10:33:20;;;;;;;6.68;5.97;;;;;;;28.67;47.61;95755.84;5095988;28;20040;-67
2023/07/02 10:35:50;;;;;;;7.75;6.53;;;;;;;28.41;49.70;95761.78;5095998;28;20066;-66
2023/07/02 10:38:21;;;;;;;7.00;6.30;;;;;;;28.40;50.28;95752.88;5095915;28;20048;-66
2023/07/02 10:40:56;;;;;;;7.68;5.85;;;;;;;28.44;49.98;95748.78;5094774;28;20072;-66
2023/07/02 10:43:28;;;;;;;9.88;6.78;;;;;;;28.57;51.50;95742.75;5095816;28;20060;-67
2023/07/02 10:45:56;;;;;;;9.45;6.75;;;;;;;28.86;50.35;95745.44;5095371;28;20056;-66
2023/07/02 10:48:24;;;;;;;8.00;6.70;;;;;;;29.08;51.87;95748.16;5095745;28;20055;-67
2023/07/02 10:50:52;;;;;;;10.27;6.60;;;;;;;29.12;53.84;95750.28;5095665;28;20131;-67
2023/07/02 10:53:20;;;;;;;11.82;6.82;;;;;;;29.34;51.05;95755.59;5095585;28;20051;-67
2023/07/02 10:55:56;;;;;;;8.32;6.72;;;;;;;29.30;47.39;95754.34;5095471;28;20448;-67
2023/07/02 10:58:28;;;;;;;9.88;5.97;;;;;;;29.32;49.04;95757.66;5095626;28;20048;-66
2023/07/02 11:00:55;;;;;;;6.80;6.10;;;;;;;29.25;48.15;95757.59;5095395;28;20047;-67
2023/07/02 11:03:24;;;;;;;8.52;6.30;;;;;;;29.07;51.76;95759.97;5095418;28;20044;-66
2023/07/02 11:05:54;;;;;;;9.07;6.55;;;;;;;29.02;50.64;95757.84;5095261;28;20467;-66
2023/07/02 11:08:24;;;;;;;9.00;5.93;;;;;;;28.92;48.15;95747.38;5093716;28;20058;-66
2023/07/02 11:10:52;;;;;;;7.93;6.10;;;;;;;28.92;50.92;95752.75;5095315;28;20044;-66
2023/07/02 11:13:22;;;;;;;11.27;6.55;;;;;;;29.05;50.52;95745.84;5095156;28;20135;-67
2023/07/02 11:15:51;;;;;;;9.80;6.50;;;;;;;29.08;48.34;95745.47;5095147;28;20048;-66
2023/07/02 11:18:21;;;;;;;7.82;6.47;;;;;;;29.17;50.68;95752.38;5095095;28;20127;-66
2023/07/02 11:20:49;;;;;;;12.82;7.43;;;;;;;29.17;51.63;95752.38;5093861;28;20125;-66
2023/07/02 11:23:33;;;;;;;8.77;6.95;;;;;;;29.13;50.99;95746.53;5095019;28;20513;-67
2023/07/02 11:26:07;;;;;;;11.63;7.03;;;;;;;28.98;53.31;95735.88;5093859;28;20101;-67
2023/07/02 11:28:35;;;;;;;10.82;6.82;;;;;;;28.92;51.93;95742.00;5094791;28;20074;-66
2023/07/02 11:31:07;;;;;;;11.25;7.10;;;;;;;28.92;52.07;95739.31;5093794;28;20048;-67
2023/07/02 11:33:36;;;;;;;8.48;6.55;;;;;;;28.85;49.49;95741.09;5094799;28;20066;-67
2023/07/02 11:36:05;;;;;;;9.55;7.10;;;;;;;28.86;51.43;95740.06;5094795;28;20044;-66